Time;durP1;ratioP1;P1;durP2;ratioP2;P2;SDS_P1;SDS_P2;PMS_P1;PMS_P2;Temp;Humidity;BMP_temperature;BMP_pressure;BME280_temperature;BME280_humidity;BME280_pressure;Samples;Min_cycle;Max_cycle;Signal;HPM_P1;HPM_P2
2022/06/20 00:01:28;;;;;;;10.32;2.42;;;16.00;99.90;;;;;;5030244;28;20383;-72
2022/06/20 00:03:54;;;;;;;7.05;2.50;;;15.10;99.90;;;;;;5011354;28;20041;-73
2022/06/20 00:06:22;;;;;;;10.05;3.05;;;15.10;99.90;;;;;;5013895;28;20049;-72
2022/06/20 00:08:51;;;;;;;9.27;2.70;;;15.10;99.90;;;;;;5030687;28;20046;-72
2022/06/20 00:11:34;;;;;;;12.82;2.70;;;15.00;99.90;;;;;;5032307;28;20397;-72
2022/06/20 00:13:59;;;;;;;9.65;2.92;;;15.00;99.90;;;;;;5031440;28;20045;-72
2022/06/20 00:16:25;;;;;;;7.07;2.53;;;15.00;99.90;;;;;;5012820;28;20064;-72
2022/06/20 00:18:51;;;;;;;9.15;2.63;;;15.60;99.90;;;;;;5029703;28;20073;-73
2022/06/20 00:21:22;;;;;;;8.60;2.45;;;15.20;99.90;;;;;;5012957;28;20040;-72
2022/06/20 00:23:48;;;;;;;9.63;2.70;;;15.00;99.90;;;;;;5030988;28;20124;-72
2022/06/20 00:26:15;;;;;;;11.02;2.40;;;15.00;99.90;;;;;;5031125;28;20049;-72
2022/06/20 00:28:41;;;;;;;8.45;2.22;;;15.00;99.90;;;;;;5031268;28;20037;-72
2022/06/20 00:31:07;;;;;;;6.47;2.35;;;15.00;99.90;;;;;;5032239;28;20167;-73
2022/06/20 00:33:33;;;;;;;11.45;2.10;;;15.00;99.90;;;;;;5015696;28;20132;-73
2022/06/20 00:35:59;;;;;;;10.75;2.50;;;15.00;99.90;;;;;;5015438;28;20632;-71
2022/06/20 00:38:25;;;;;;;7.00;2.20;;;15.00;99.90;;;;;;5030166;28;20053;-72
2022/06/20 00:41:01;;;;;;;10.02;2.47;;;15.00;99.90;;;;;;5014926;28;20443;-72
2022/06/20 00:43:31;;;;;;;;;;;15.00;99.90;;;;;;5031479;28;20049;-72
2022/06/20 00:46:02;;;;;;;6.32;2.08;;;15.00;99.90;;;;;;5030893;28;20289;-72
2022/06/20 00:48:37;;;;;;;7.50;2.20;;;15.10;99.90;;;;;;5008826;28;20062;-72
2022/06/20 00:51:12;;;;;;;10.80;2.58;;;15.10;99.90;;;;;;5027831;28;20051;-72
2022/06/20 00:53:44;;;;;;;8.33;2.53;;;15.50;99.90;;;;;;5014606;28;20045;-72
2022/06/20 00:56:18;;;;;;;6.45;2.17;;;14.90;99.90;;;;;;5025293;28;20311;-72
2022/06/20 00:59:03;;;;;;;6.72;1.92;;;14.90;99.90;;;;;;5029545;28;20132;-72
2022/06/20 01:01:36;;;;;;;7.65;2.00;;;15.40;99.90;;;;;;5029061;28;20060;-72
2022/06/20 01:04:10;;;;;;;9.30;2.10;;;15.00;99.90;;;;;;5027982;28;20486;-72
2022/06/20 01:06:43;;;;;;;6.63;2.50;;;14.90;99.90;;;;;;5011491;28;20494;-72
2022/06/20 01:09:10;;;;;;;7.78;2.30;;;14.90;99.90;;;;;;5007947;28;20041;-72
2022/06/20 01:11:55;;;;;;;10.18;2.33;;;15.00;99.90;;;;;;4991951;28;20558;-72
2022/06/20 01:14:37;;;;;;;7.00;2.30;;;14.80;99.90;;;;;;5009245;28;20054;-72
2022/06/20 01:17:13;;;;;;;6.93;2.22;;;14.80;99.90;;;;;;4994558;28;20117;-72
2022/06/20 01:19:47;;;;;;;;;;;14.80;99.90;;;;;;5027974;28;20099;-72
2022/06/20 01:22:34;;;;;;;8.63;2.28;;;14.70;99.90;;;;;;5029281;28;19927;-72
2022/06/20 01:25:08;;;;;;;6.55;2.10;;;14.70;99.90;;;;;;5028727;28;20398;-72
2022/06/20 01:27:40;;;;;;;8.35;2.17;;;14.70;99.90;;;;;;5029240;28;20129;-72
2022/06/20 01:30:06;;;;;;;6.15;2.50;;;14.60;99.90;;;;;;5011104;28;20052;-72
2022/06/20 01:32:32;;;;;;;6.95;2.45;;;14.60;99.90;;;;;;5009250;28;20045;-72
2022/06/20 01:35:03;;;;;;;6.93;2.30;;;14.70;99.90;;;;;;5012218;28;20049;-72
2022/06/20 01:37:32;;;;;;;7.53;2.45;;;14.50;99.90;;;;;;4975542;28;20050;-72
2022/06/20 01:40:24;;;;;;;10.57;2.50;;;15.00;99.90;;;;;;5009170;28;20038;-72
2022/06/20 01:42:51;;;;;;;7.80;2.30;;;14.90;99.90;;;;;;5020595;28;20056;-72
2022/06/20 01:48:14;;;;;;;8.68;2.40;;;14.40;99.90;;;;;;4991374;28;1071513;-72
2022/06/20 01:50:42;;;;;;;7.90;2.15;;;14.30;99.90;;;;;;5030213;28;20536;-72
2022/06/20 01:53:09;;;;;;;10.20;2.55;;;14.40;99.90;;;;;;5028663;28;20037;-72
2022/06/20 01:55:36;;;;;;;8.60;2.15;;;14.40;99.90;;;;;;5029629;28;20041;-73
2022/06/20 01:58:10;;;;;;;8.68;2.13;;;14.20;99.90;;;;;;5032697;28;20056;-72
2022/06/20 02:00:36;;;;;;;7.20;2.22;;;14.20;99.90;;;;;;5013059;28;20155;-74
2022/06/20 02:03:07;;;;;;;8.13;2.10;;;14.10;99.90;;;;;;4994884;28;20061;-71
2022/06/20 02:05:34;;;;;;;8.02;2.10;;;15.00;99.90;;;;;;5012159;28;20401;-72
2022/06/20 02:08:04;;;;;;;10.43;2.50;;;14.10;99.90;;;;;;5028610;28;20170;-71
2022/06/20 02:10:44;;;;;;;8.00;2.25;;;14.20;99.90;;;;;;5029728;28;20065;-71
2022/06/20 02:13:13;;;;;;;5.90;2.10;;;14.20;99.90;;;;;;5029711;28;20041;-72
2022/06/20 02:15:40;;;;;;;6.28;2.42;;;14.20;99.90;;;;;;4990042;28;20053;-73
2022/06/20 02:18:08;;;;;;;8.02;2.00;;;14.60;99.90;;;;;;5022472;28;20034;-73
2022/06/20 02:20:45;;;;;;;8.35;2.35;;;14.40;99.90;;;;;;5030976;28;20107;-73
2022/06/20 02:23:18;;;;;;;8.20;2.17;;;14.30;99.90;;;;;;5028509;28;20441;-73
2022/06/20 02:25:47;;;;;;;6.85;2.30;;;14.30;99.90;;;;;;5029104;28;20143;-73
2022/06/20 02:28:20;;;;;;;8.18;2.08;;;14.30;99.90;;;;;;5029637;28;20069;-73
2022/06/20 02:30:46;;;;;;;5.55;2.13;;;14.30;99.90;;;;;;5029561;28;20520;-73
2022/06/20 02:33:17;;;;;;;6.85;1.95;;;14.30;99.90;;;;;;5010250;28;20085;-73
2022/06/20 02:35:44;;;;;;;9.10;2.30;;;14.30;99.90;;;;;;5027835;28;20080;-73
2022/06/20 02:38:10;;;;;;;8.27;2.33;;;14.80;99.90;;;;;;5027961;28;20046;-73
2022/06/20 02:40:41;;;;;;;7.78;2.25;;;15.20;99.90;;;;;;5028829;28;20053;-73
2022/06/20 02:43:28;;;;;;;7.60;2.53;;;14.30;99.90;;;;;;5027727;28;20049;-73
2022/06/20 02:45:56;;;;;;;5.78;1.90;;;14.30;99.90;;;;;;5010633;28;20049;-73
2022/06/20 02:48:25;;;;;;;5.15;2.08;;;14.30;99.90;;;;;;5028732;28;20519;-73
2022/06/20 02:50:55;;;;;;;8.68;2.13;;;14.30;99.90;;;;;;5015242;28;20049;-73
2022/06/20 02:53:36;;;;;;;6.15;2.03;;;14.20;99.90;;;;;;5009359;28;20037;-73
2022/06/20 02:56:05;;;;;;;6.78;2.40;;;14.20;99.90;;;;;;5028074;28;20033;-73
2022/06/20 02:58:34;;;;;;;9.15;2.40;;;14.10;99.90;;;;;;5028216;28;20037;-74
2022/06/20 03:01:11;;;;;;;10.30;2.38;;;14.00;99.90;;;;;;5028892;28;20045;-73
2022/06/20 03:03:41;;;;;;;10.15;2.53;;;14.00;99.90;;;;;;5009957;28;20049;-73
2022/06/20 03:06:12;;;;;;;9.30;2.47;;;14.20;99.90;;;;;;5028037;28;20494;-73
2022/06/20 03:08:38;;;;;;;7.28;2.70;;;14.00;99.90;;;;;;5027948;28;20056;-73
2022/06/20 03:11:05;;;;;;;10.90;2.70;;;13.90;99.90;;;;;;5011297;28;20053;-71
2022/06/20 03:13:32;;;;;;;9.13;2.85;;;13.90;99.90;;;;;;5011808;28;20050;-71
2022/06/20 03:16:01;;;;;;;8.48;2.58;;;13.80;99.90;;;;;;5027936;28;20536;-72
2022/06/20 03:18:27;;;;;;;7.72;2.50;;;14.30;99.90;;;;;;5027757;28;20421;-72
2022/06/20 03:20:54;;;;;;;7.07;2.90;;;13.80;99.90;;;;;;5010905;28;20053;-72
2022/06/20 03:23:27;;;;;;;9.77;2.83;;;13.80;99.90;;;;;;5010475;28;20398;-72
2022/06/20 03:25:55;;;;;;;10.07;2.97;;;13.70;99.90;;;;;;5027399;28;20056;-72
2022/06/20 03:28:22;;;;;;;10.18;3.45;;;14.20;99.90;;;;;;5027490;28;20790;-72
2022/06/20 03:30:49;;;;;;;5.75;2.72;;;13.70;99.90;;;;;;5006565;28;20073;-72
2022/06/20 03:33:16;;;;;;;9.25;2.65;;;13.70;99.90;;;;;;5007793;28;20053;-72
2022/06/20 03:35:56;;;;;;;7.78;3.30;;;14.10;99.90;;;;;;4996588;28;20045;-72
2022/06/20 03:38:23;;;;;;;9.38;2.65;;;13.70;99.90;;;;;;5008971;28;20416;-72
2022/06/20 03:40:49;;;;;;;10.02;2.92;;;13.80;99.90;;;;;;5028081;28;20049;-72
2022/06/20 03:43:18;;;;;;;14.82;2.97;;;13.60;99.90;;;;;;5027622;28;20485;-72
2022/06/20 03:45:57;;;;;;;8.70;2.70;;;13.60;99.90;;;;;;5009064;28;20050;-72
2022/06/20 03:48:29;;;;;;;11.00;2.97;;;13.60;99.90;;;;;;5027140;28;20501;-72
2022/06/20 03:51:00;;;;;;;10.50;3.10;;;14.30;99.90;;;;;;5011365;28;20060;-72
2022/06/20 03:54:17;;;;;;;7.47;2.97;;;13.60;99.90;;;;;;5026603;28;20400;-72
2022/06/20 03:57:10;;;;;;;10.55;2.97;;;13.60;99.90;;;;;;5023359;28;20049;-73
2022/06/20 03:59:45;;;;;;;9.15;3.08;;;13.60;99.90;;;;;;5027398;28;20103;-72
2022/06/20 04:02:17;;;;;;;7.70;3.10;;;13.80;99.90;;;;;;5027595;28;20052;-72
2022/06/20 04:05:10;;;;;;;7.95;3.45;;;13.60;99.90;;;;;;5028303;28;20363;-73
2022/06/20 04:07:44;;;;;;;10.63;3.08;;;13.60;99.90;;;;;;5026883;28;20041;-72
2022/06/20 04:13:09;;;;;;;9.65;3.38;;;13.50;99.90;;;;;;5028289;28;20417;-72
2022/06/20 04:16:02;;;;;;;10.50;2.80;;;13.60;99.90;;;;;;5009109;28;20045;-72
2022/06/20 04:18:58;;;;;;;8.55;3.10;;;13.50;99.90;;;;;;5000605;28;20414;-72
2022/06/20 04:21:36;;;;;;;9.68;2.90;;;13.50;99.90;;;;;;5027992;28;20466;-72
2022/06/20 04:24:24;;;;;;;7.45;2.70;;;13.50;99.90;;;;;;5027989;28;20056;-73
2022/06/20 04:27:07;;;;;;;10.63;3.55;;;13.50;99.90;;;;;;5027209;28;20564;-73
2022/06/20 04:29:40;;;;;;;9.45;2.90;;;13.50;99.90;;;;;;5027647;28;20174;-72
2022/06/20 04:32:44;;;;;;;12.63;3.15;;;13.90;99.90;;;;;;5026477;28;20073;-73
2022/06/20 04:35:24;;;;;;;10.88;3.42;;;13.60;99.90;;;;;;5026295;28;20414;-73
2022/06/20 04:37:57;;;;;;;9.77;3.35;;;13.60;99.90;;;;;;5027045;28;20438;-73
2022/06/20 04:40:47;;;;;;;11.77;3.25;;;13.70;99.90;;;;;;5030121;28;20050;-73
2022/06/20 04:43:26;;;;;;;15.00;3.47;;;13.70;99.90;;;;;;5030828;28;20045;-73
2022/06/20 04:46:02;;;;;;;12.40;3.60;;;13.70;99.90;;;;;;5030800;28;20049;-73
2022/06/20 04:48:28;;;;;;;10.95;3.58;;;13.70;99.90;;;;;;5029829;28;20453;-73
2022/06/20 04:51:00;;;;;;;10.55;3.60;;;13.70;99.90;;;;;;5031340;28;20088;-73
2022/06/20 04:53:33;;;;;;;11.38;3.72;;;13.70;99.90;;;;;;5030261;28;20482;-73
2022/06/20 04:56:03;;;;;;;9.98;3.40;;;13.70;99.90;;;;;;5030356;28;20099;-73
2022/06/20 04:58:34;;;;;;;9.77;3.30;;;13.70;99.90;;;;;;5032821;28;20038;-72
2022/06/20 05:01:01;;;;;;;12.50;3.90;;;13.70;99.90;;;;;;5013278;28;20512;-72
2022/06/20 05:03:31;;;;;;;11.65;3.85;;;13.70;99.90;;;;;;5029687;28;20513;-72
2022/06/20 05:05:59;;;;;;;12.80;3.97;;;14.00;99.90;;;;;;5030819;28;20402;-72
2022/06/20 05:08:37;;;;;;;10.70;3.80;;;13.90;99.90;;;;;;5030132;28;20336;-72
2022/06/20 05:11:11;;;;;;;11.63;3.63;;;13.70;99.90;;;;;;4998165;28;20442;-72
2022/06/20 05:13:57;;;;;;;9.98;3.20;;;13.80;99.90;;;;;;4993048;28;20056;-72
2022/06/20 05:16:27;;;;;;;12.63;4.38;;;13.80;99.90;;;;;;5019907;28;20053;-72
2022/06/20 05:19:01;;;;;;;15.25;4.07;;;13.80;99.90;;;;;;5032340;28;20095;-72
2022/06/20 05:21:31;;;;;;;12.50;3.83;;;13.80;99.90;;;;;;4998750;28;20049;-72
2022/06/20 05:24:02;;;;;;;12.13;3.90;;;13.40;99.90;;;;;;5030178;28;20100;-72
2022/06/20 05:26:32;;;;;;;10.75;3.67;;;13.80;99.90;;;;;;4993392;28;20046;-73
2022/06/20 05:29:01;;;;;;;12.10;3.95;;;13.90;99.90;;;;;;5013383;28;20041;-73
2022/06/20 05:31:37;;;;;;;14.70;4.15;;;13.90;99.90;;;;;;5028774;28;20106;-73
2022/06/20 05:34:15;;;;;;;;;;;14.50;99.90;;;;;;5031057;28;20037;-73
2022/06/20 05:36:51;;;;;;;11.77;4.00;;;13.90;99.90;;;;;;5029650;28;20008;-73
2022/06/20 05:39:26;;;;;;;10.52;3.88;;;14.00;99.90;;;;;;5011104;28;20096;-73
2022/06/20 05:41:52;;;;;;;15.40;4.60;;;14.00;99.90;;;;;;5029191;28;20045;-74
2022/06/20 05:44:18;;;;;;;14.60;4.35;;;14.90;99.90;;;;;;5030096;28;20041;-73
2022/06/20 05:46:49;;;;;;;11.48;4.18;;;14.10;99.90;;;;;;5028136;28;20041;-73
2022/06/20 05:49:26;;;;;;;11.30;3.72;;;14.10;99.90;;;;;;5030125;28;20054;-72
2022/06/20 05:51:54;;;;;;;13.27;4.53;;;14.20;99.90;;;;;;5031738;28;20079;-72
2022/06/20 05:54:27;;;;;;;14.77;4.57;;;14.10;99.90;;;;;;5020091;28;20048;-73
2022/06/20 05:57:00;;;;;;;12.18;4.00;;;14.10;99.90;;;;;;5029258;28;20394;-73
2022/06/20 05:59:26;;;;;;;13.52;4.03;;;14.40;99.90;;;;;;5010475;28;20506;-72
2022/06/20 06:01:55;;;;;;;12.48;3.95;;;14.60;99.90;;;;;;5030639;28;20077;-72
2022/06/20 06:04:34;;;;;;;15.75;3.83;;;14.50;99.90;;;;;;5012433;28;20056;-72
2022/06/20 06:07:22;;;;;;;9.70;3.90;;;14.40;99.90;;;;;;5028500;28;20060;-73
2022/06/20 06:09:59;;;;;;;12.00;3.97;;;14.40;99.90;;;;;;5012777;28;20454;-72
2022/06/20 06:12:34;;;;;;;12.00;4.20;;;15.40;99.90;;;;;;5027607;28;20156;-72
2022/06/20 06:15:11;;;;;;;13.13;3.85;;;15.20;99.90;;;;;;5028938;28;20394;-73
2022/06/20 06:17:50;;;;;;;11.35;3.80;;;15.00;99.90;;;;;;5028342;28;20060;-72
2022/06/20 06:20:26;;;;;;;13.45;3.78;;;14.70;99.90;;;;;;4994328;28;20037;-73
2022/06/20 06:22:56;;;;;;;;;;;14.70;99.90;;;;;;5029618;28;20103;-73
2022/06/20 06:25:37;;;;;;;13.07;4.20;;;14.70;99.90;;;;;;5029173;28;20270;-74
2022/06/20 06:28:11;;;;;;;11.82;3.47;;;14.80;99.90;;;;;;5010043;28;20053;-74
2022/06/20 06:30:45;;;;;;;12.73;3.90;;;14.90;99.90;;;;;;5028132;28;20033;-74
2022/06/20 06:33:22;;;;;;;12.88;3.75;;;15.60;99.90;;;;;;5028007;28;20175;-73
2022/06/20 06:35:58;;;;;;;9.65;3.35;;;15.10;99.90;;;;;;5027319;28;20098;-73
2022/06/20 06:38:35;;;;;;;12.52;4.00;;;15.30;99.90;;;;;;5028139;28;20386;-73
2022/06/20 06:41:04;;;;;;;11.60;3.83;;;15.40;99.90;;;;;;5028367;28;20041;-73
2022/06/20 06:43:39;;;;;;;12.10;3.63;;;15.60;99.90;;;;;;4975715;28;20133;-74
2022/06/20 06:46:12;;;;;;;14.05;4.35;;;15.70;99.90;;;;;;4990608;28;20057;-75
2022/06/20 06:48:54;;;;;;;11.85;3.40;;;16.00;99.90;;;;;;4989602;28;20054;-75
2022/06/20 06:51:21;;;;;;;15.63;3.58;;;15.90;99.90;;;;;;5012174;28;20045;-73
2022/06/20 06:54:04;;;;;;;12.90;3.58;;;15.90;99.90;;;;;;5029105;28;20037;-74
2022/06/20 06:56:48;;;;;;;11.02;3.50;;;15.90;99.90;;;;;;5027074;28;20481;-74
2022/06/20 06:59:23;;;;;;;10.95;3.30;;;15.90;99.90;;;;;;4993957;28;20110;-75
2022/06/20 07:01:52;;;;;;;10.93;2.97;;;15.90;99.90;;;;;;5009261;28;20088;-75
2022/06/20 07:04:20;;;;;;;11.63;3.08;;;15.80;99.90;;;;;;5027469;28;20335;-75
2022/06/20 07:06:51;;;;;;;10.32;3.40;;;16.40;99.90;;;;;;5029876;28;20059;-75
2022/06/20 07:09:40;;;;;;;16.60;3.72;;;16.00;99.90;;;;;;5047239;28;20045;-75
2022/06/20 07:12:20;;;;;;;13.32;3.38;;;16.00;99.90;;;;;;5013864;28;20493;-75
2022/06/20 07:14:57;;;;;;;11.60;3.60;;;16.10;99.90;;;;;;4991503;28;20045;-75
2022/06/20 07:17:33;;;;;;;14.38;3.58;;;16.10;99.90;;;;;;5027621;28;20045;-74
2022/06/20 07:20:22;;;;;;;12.52;3.45;;;16.10;99.90;;;;;;5027668;28;20494;-74
2022/06/20 07:22:49;;;;;;;10.93;3.00;;;16.10;99.90;;;;;;4993558;28;20053;-74
2022/06/20 07:25:30;;;;;;;12.13;3.05;;;16.30;99.90;;;;;;5027731;28;20088;-74
2022/06/20 07:28:03;;;;;;;10.48;3.15;;;16.30;99.90;;;;;;5028548;28;20088;-74
2022/06/20 07:30:37;;;;;;;10.50;2.80;;;16.20;99.90;;;;;;4992670;28;20042;-74
2022/06/20 07:33:12;;;;;;;11.32;2.85;;;16.30;99.90;;;;;;5007341;28;20054;-74
2022/06/20 07:35:42;;;;;;;;;;;16.30;99.90;;;;;;5011136;28;20041;-75
2022/06/20 07:38:28;;;;;;;11.85;2.75;;;16.40;99.90;;;;;;5027195;28;19928;-74
2022/06/20 07:40:56;;;;;;;7.43;2.47;;;16.50;99.90;;;;;;5028099;28;20041;-74
2022/06/20 07:43:33;;;;;;;8.95;2.67;;;16.60;99.90;;;;;;5026649;28;20068;-74
2022/06/20 07:46:06;;;;;;;8.95;2.40;;;16.80;99.90;;;;;;5029569;28;20057;-74
2022/06/20 07:48:37;;;;;;;10.27;2.70;;;17.00;99.90;;;;;;5009828;28;20064;-74
2022/06/20 07:51:21;;;;;;;7.13;2.25;;;17.10;99.90;;;;;;5009580;28;20060;-74
2022/06/20 07:54:00;;;;;;;8.48;2.35;;;17.20;99.90;;;;;;5026621;28;20045;-74
2022/06/20 07:56:45;;;;;;;7.63;2.33;;;17.30;99.90;;;;;;5026626;28;20045;-76
2022/06/20 07:59:54;;;;;;;8.70;2.53;;;17.40;99.90;;;;;;5027724;28;20061;-74
2022/06/20 08:02:28;;;;;;;7.43;2.45;;;17.40;99.90;;;;;;4985439;28;20425;-75
2022/06/20 08:04:58;;;;;;;6.00;2.28;;;17.50;99.90;;;;;;5029602;28;20084;-74
2022/06/20 08:07:50;;;;;;;7.80;2.28;;;17.40;99.90;;;;;;5011771;28;20114;-75
2022/06/20 08:10:33;;;;;;;7.40;2.30;;;17.30;99.90;;;;;;5010671;28;20143;-75
2022/06/20 08:13:20;;;;;;;7.78;2.13;;;17.30;99.90;;;;;;5027496;28;20041;-75
2022/06/20 08:16:13;;;;;;;7.15;2.08;;;17.20;99.90;;;;;;5012055;28;20276;-74
2022/06/20 08:18:39;;;;;;;10.65;2.38;;;17.30;99.90;;;;;;5021962;28;20505;-71
2022/06/20 08:21:17;;;;;;;7.10;2.30;;;17.30;99.90;;;;;;5031584;28;20080;-70
2022/06/20 08:23:45;;;;;;;6.03;2.10;;;17.40;99.90;;;;;;5030537;28;20045;-70
2022/06/20 08:26:18;;;;;;;7.47;2.40;;;17.50;99.90;;;;;;5030150;28;20486;-71
2022/06/20 08:28:56;;;;;;;10.40;2.55;;;17.60;99.90;;;;;;5031324;28;20513;-71
2022/06/20 08:31:33;;;;;;;6.88;2.08;;;17.60;99.90;;;;;;5030425;28;20261;-71
2022/06/20 08:34:09;;;;;;;7.20;1.88;;;17.50;99.90;;;;;;5013637;28;20045;-71
2022/06/20 08:36:40;;;;;;;7.75;2.13;;;17.50;99.90;;;;;;5012311;28;20486;-71
2022/06/20 08:39:13;;;;;;;5.90;1.90;;;17.60;99.90;;;;;;5029100;28;20488;-70
2022/06/20 08:42:04;;;;;;;5.93;1.90;;;17.70;99.90;;;;;;5011116;28;20061;-71
2022/06/20 08:45:01;;;;;;;8.73;2.33;;;17.90;99.90;;;;;;5016658;28;20498;-71
2022/06/20 08:47:57;;;;;;;9.48;2.30;;;18.00;99.90;;;;;;5027638;28;20123;-71
2022/06/20 08:50:41;;;;;;;9.73;2.20;;;18.00;99.90;;;;;;5030455;28;20049;-72
2022/06/20 08:53:34;;;;;;;6.72;2.60;;;18.00;99.90;;;;;;4987070;28;20054;-71
2022/06/20 08:56:34;;;;;;;8.13;2.30;;;18.10;99.90;;;;;;5023298;28;20506;-71
2022/06/20 08:59:38;;;;;;;8.65;2.20;;;18.10;99.90;;;;;;4986384;28;20507;-71
2022/06/20 09:02:10;;;;;;;8.18;2.20;;;18.20;99.90;;;;;;5008079;28;20062;-71
2022/06/20 09:05:16;;;;;;;8.85;2.00;;;18.30;99.90;;;;;;5011005;28;20077;-71
2022/06/20 09:07:54;;;;;;;4.45;2.00;;;18.30;99.90;;;;;;4961983;28;20486;-71
2022/06/20 09:10:30;;;;;;;8.63;2.22;;;18.10;99.90;;;;;;5021289;28;20053;-71
2022/06/20 09:13:31;;;;;;;7.28;2.55;;;18.10;99.90;;;;;;5032362;28;20041;-71
2022/06/20 09:16:22;;;;;;;6.18;1.85;;;18.20;99.90;;;;;;5030191;28;20042;-78
2022/06/20 09:19:17;;;;;;;6.45;2.00;;;18.30;99.90;;;;;;5012141;28;20096;-78
2022/06/20 09:21:57;;;;;;;7.18;2.15;;;18.40;99.90;;;;;;5007815;28;20111;-78
2022/06/20 09:24:49;;;;;;;10.05;1.73;;;18.50;99.90;;;;;;5013847;28;20049;-78
2022/06/20 09:27:18;;;;;;;4.60;1.70;;;18.50;99.90;;;;;;5010474;28;20058;-78
2022/06/20 09:30:02;;;;;;;6.00;1.90;;;18.60;99.90;;;;;;4999426;28;20037;-78
2022/06/20 09:32:46;;;;;;;5.20;1.70;;;18.70;99.90;;;;;;5025428;28;20065;-76
2022/06/20 09:35:32;;;;;;;5.93;1.90;;;18.70;99.90;;;;;;5028845;28;20387;-79
2022/06/20 09:38:38;;;;;;;6.63;1.98;;;18.90;99.90;;;;;;5018975;28;20068;-78
2022/06/20 09:41:38;;;;;;;4.72;1.60;;;19.00;99.90;;;;;;5018551;28;20136;-77
2022/06/20 09:44:27;;;;;;;6.20;1.75;;;19.30;99.90;;;;;;5028621;28;20064;-77
2022/06/20 09:47:26;;;;;;;8.13;2.10;;;19.50;99.90;;;;;;4964161;28;20093;-78
2022/06/20 09:50:19;;;;;;;6.90;2.05;;;19.70;99.90;;;;;;5009236;28;20065;-71
2022/06/20 09:53:06;;;;;;;6.60;1.90;;;19.80;99.90;;;;;;5009016;28;20046;-72
2022/06/20 09:55:58;;;;;;;6.55;2.22;;;20.00;99.90;;;;;;5017207;28;20045;-72
2022/06/20 09:58:33;;;;;;;5.70;2.10;;;20.00;99.90;;;;;;5011128;28;20056;-72
2022/06/20 10:01:27;;;;;;;3.20;1.67;;;20.10;99.90;;;;;;5029464;28;20049;-71
2022/06/20 10:04:17;;;;;;;6.28;1.67;;;20.10;99.90;;;;;;5010716;28;20041;-72
2022/06/20 10:07:10;;;;;;;4.20;1.80;;;20.20;99.90;;;;;;5028068;28;20343;-72
2022/06/20 10:09:49;;;;;;;5.97;1.80;;;20.70;99.90;;;;;;5028765;28;20033;-71
2022/06/20 10:12:27;;;;;;;7.57;1.80;;;21.60;99.90;;;;;;5028459;28;20473;-72
2022/06/20 10:15:10;;;;;;;3.85;1.70;;;22.80;98.40;;;;;;5030380;28;20124;-71
2022/06/20 10:17:47;;;;;;;4.78;1.70;;;24.70;95.80;;;;;;5008697;28;20038;-72
2022/06/20 10:20:40;;;;;;;4.68;1.90;;;24.90;95.10;;;;;;5028687;28;20099;-72
2022/06/20 10:23:09;;;;;;;4.65;1.60;;;26.10;94.00;;;;;;5028006;28;20371;-72
2022/06/20 10:25:47;;;;;;;6.25;1.70;;;26.90;93.40;;;;;;5027375;28;20179;-71
2022/06/20 10:28:49;;;;;;;6.80;1.90;;;26.40;93.00;;;;;;4996526;28;20088;-72
2022/06/20 10:31:30;;;;;;;4.90;1.70;;;26.40;93.20;;;;;;5009855;28;20573;-73
2022/06/20 10:34:03;;;;;;;5.57;2.00;;;27.80;91.50;;;;;;5029294;28;20045;-72
2022/06/20 10:36:52;;;;;;;5.25;1.60;;;27.90;92.10;;;;;;5027571;28;20073;-73
2022/06/20 10:39:45;;;;;;;10.18;2.10;;;29.00;90.70;;;;;;5027812;28;20520;-73
2022/06/20 10:42:32;;;;;;;4.70;1.50;;;29.60;88.60;;;;;;5020074;28;20085;-73
2022/06/20 10:45:30;;;;;;;5.30;1.70;;;31.20;87.70;;;;;;4975278;28;20060;-71
2022/06/20 10:48:18;;;;;;;6.47;1.98;;;32.20;82.70;;;;;;4989797;28;20058;-73
2022/06/20 10:51:16;;;;;;;4.93;1.70;;;30.10;84.10;;;;;;5008408;28;20455;-72
2022/06/20 10:53:56;;;;;;;6.18;2.10;;;28.80;85.20;;;;;;5009092;28;20101;-73
2022/06/20 10:56:34;;;;;;;4.07;1.60;;;29.10;85.50;;;;;;5008621;28;20056;-73
2022/06/20 10:59:14;;;;;;;6.25;1.80;;;28.50;85.70;;;;;;5010891;28;20042;-72
2022/06/20 11:01:42;;;;;;;5.57;1.90;;;27.00;88.30;;;;;;5007944;28;20038;-72
2022/06/20 11:04:35;;;;;;;6.18;1.65;;;26.30;90.30;;;;;;5008257;28;20045;-72
2022/06/20 11:07:26;;;;;;;4.93;1.63;;;25.30;88.90;;;;;;5007544;28;20454;-71
2022/06/20 11:10:13;;;;;;;4.38;1.55;;;24.70;90.80;;;;;;4979639;28;20077;-72
2022/06/20 11:12:51;;;;;;;8.38;1.80;;;23.80;91.50;;;;;;4990670;28;20099;-71
2022/06/20 11:15:40;;;;;;;4.03;1.80;;;23.50;91.90;;;;;;5007852;28;20050;-71
2022/06/20 11:18:31;;;;;;;4.53;1.55;;;23.60;92.10;;;;;;5007659;28;20399;-72
2022/06/20 11:21:25;;;;;;;3.80;1.50;;;23.30;91.80;;;;;;4994368;28;20058;-71
2022/06/20 11:24:28;;;;;;;4.35;1.70;;;22.80;92.60;;;;;;5008551;28;20056;-71
2022/06/20 11:27:06;;;;;;;3.50;1.58;;;23.50;92.70;;;;;;5008418;28;20092;-72
2022/06/20 11:29:43;;;;;;;5.32;1.77;;;24.10;91.20;;;;;;5007743;28;20064;-71
2022/06/20 11:32:48;;;;;;;4.70;1.70;;;24.50;92.10;;;;;;5006813;28;20485;-72
2022/06/20 11:35:33;;;;;;;6.10;1.80;;;23.90;92.50;;;;;;4989086;28;20049;-72
2022/06/20 11:38:02;;;;;;;5.10;1.95;;;24.30;92.30;;;;;;4989816;28;20490;-71
2022/06/20 11:40:39;;;;;;;4.25;1.52;;;27.00;90.90;;;;;;4990046;28;20057;-71
2022/06/20 11:43:19;;;;;;;4.20;1.90;;;28.50;88.10;;;;;;5009683;28;20128;-72
2022/06/20 11:46:02;;;;;;;4.75;1.77;;;29.80;86.10;;;;;;5007604;28;20473;-72
2022/06/20 11:48:52;;;;;;;4.15;1.75;;;30.70;85.30;;;;;;4991267;28;20144;-72
2022/06/20 11:51:22;;;;;;;5.55;2.05;;;32.40;82.90;;;;;;5013360;28;20046;-72
2022/06/20 11:54:27;;;;;;;4.18;1.77;;;30.70;83.60;;;;;;5025382;28;20939;-72
2022/06/20 11:56:57;;;;;;;6.47;1.88;;;28.80;85.00;;;;;;5016623;28;20049;-70
2022/06/20 11:59:41;;;;;;;6.18;1.90;;;26.20;90.10;;;;;;5031663;28;20501;-71
2022/06/20 12:02:40;;;;;;;6.07;1.88;;;24.70;91.70;;;;;;5031340;28;20247;-71
2022/06/20 12:05:18;;;;;;;4.85;1.73;;;23.70;92.70;;;;;;5031448;28;20060;-71
2022/06/20 12:08:01;;;;;;;7.07;2.13;;;23.00;93.50;;;;;;5030453;28;20051;-71
2022/06/20 12:10:37;;;;;;;6.07;2.15;;;23.10;93.70;;;;;;5001142;28;20128;-71
2022/06/20 12:13:20;;;;;;;7.07;2.00;;;22.80;93.70;;;;;;5011485;28;20100;-71
2022/06/20 12:16:05;;;;;;;5.68;1.90;;;22.40;94.10;;;;;;5010775;28;20050;-72
2022/06/20 12:23:18;;;;;;;7.07;2.00;;;22.10;93.50;;;;;;5010137;28;20057;-72
2022/06/20 12:24:15;;;;;;;3.67;1.58;;;21.60;93.60;;;;;;5011533;28;20054;-71
2022/06/20 12:26:40;;;;;;;5.43;2.00;;;21.60;94.00;;;;;;5010886;28;20049;-71
2022/06/20 12:29:15;;;;;;;4.18;1.70;;;21.60;94.40;;;;;;5011570;28;20049;-71
2022/06/20 12:31:45;;;;;;;4.70;1.73;;;21.40;94.40;;;;;;4992580;28;20441;-71
2022/06/20 12:34:16;;;;;;;6.25;2.00;;;21.20;94.90;;;;;;5014509;28;20524;-71
2022/06/20 12:36:48;;;;;;;6.70;1.98;;;21.00;95.70;;;;;;5010883;28;20133;-71
2022/06/20 12:39:23;;;;;;;5.63;2.15;;;20.80;96.70;;;;;;5010932;28;20056;-71
2022/06/20 12:41:51;;;;;;;;;;;20.50;96.70;;;;;;5012589;28;20049;-71
2022/06/20 12:44:30;;;;;;;9.02;1.95;;;20.40;96.70;;;;;;4993032;28;20008;-71
2022/06/20 12:47:07;;;;;;;6.50;2.30;;;20.20;97.70;;;;;;5009422;28;20123;-71
2022/06/20 12:49:53;;;;;;;5.82;2.10;;;20.10;98.90;;;;;;5010318;28;20487;-71
2022/06/20 12:52:43;;;;;;;5.18;2.08;;;20.20;99.60;;;;;;4976833;28;20057;-72
2022/06/20 12:55:50;;;;;;;7.53;2.10;;;20.40;99.20;;;;;;4976747;28;20161;-73
2022/06/20 12:58:38;;;;;;;5.75;2.00;;;20.30;99.00;;;;;;5010999;28;20402;-72
2022/06/20 13:01:16;;;;;;;6.60;2.30;;;20.40;99.00;;;;;;5009579;28;20150;-72
2022/06/20 13:03:52;;;;;;;4.97;2.10;;;20.60;99.20;;;;;;5010735;28;20475;-73
2022/06/20 13:06:33;;;;;;;5.07;2.03;;;20.30;98.70;;;;;;4975757;28;20045;-72
2022/06/20 13:09:04;;;;;;;8.57;2.60;;;20.20;99.40;;;;;;5011207;28;20411;-70
2022/06/20 13:12:04;;;;;;;6.35;2.17;;;20.00;99.90;;;;;;5030252;28;20056;-70
2022/06/20 13:15:07;;;;;;;8.00;2.42;;;19.80;99.90;;;;;;5011522;28;20045;-70
2022/06/20 13:17:49;;;;;;;5.13;2.10;;;19.60;99.90;;;;;;5011324;28;20056;-71
2022/06/20 13:20:35;;;;;;;7.13;2.10;;;19.70;99.90;;;;;;5030069;28;20080;-73
2022/06/20 13:23:10;;;;;;;5.18;2.03;;;19.90;99.90;;;;;;5031450;28;20041;-72
2022/06/20 13:25:46;;;;;;;5.65;2.40;;;19.70;99.90;;;;;;5011386;28;20046;-72
2022/06/20 13:28:33;;;;;;;5.93;2.28;;;19.70;99.90;;;;;;5030724;28;20092;-71
2022/06/20 13:31:30;;;;;;;6.43;2.15;;;19.60;99.90;;;;;;5029789;28;20117;-72
2022/06/20 13:34:05;;;;;;;6.50;2.20;;;19.50;99.90;;;;;;5012195;28;20064;-72
2022/06/20 13:36:44;;;;;;;6.13;2.10;;;19.50;99.90;;;;;;5017139;28;20057;-72
2022/06/20 13:39:21;;;;;;;6.90;2.25;;;19.60;99.90;;;;;;5008507;28;20092;-71
2022/06/20 13:41:56;;;;;;;8.90;1.83;;;19.50;99.90;;;;;;5008991;28;20274;-72
2022/06/20 13:44:32;;;;;;;4.72;2.10;;;19.40;99.90;;;;;;5011066;28;20375;-72
2022/06/20 13:47:08;;;;;;;;;;;19.70;99.90;;;;;;4992544;28;20112;-71
2022/06/20 13:49:46;;;;;;;;;;;19.70;99.90;;;;;;5009786;28;19933;-71